Time;durP1;ratioP1;P1;durP2;ratioP2;P2;SDS_P1;SDS_P2;PMS_P1;PMS_P2;Temp;Humidity;BMP_temperature;BMP_pressure;BME280_temperature;BME280_humidity;BME280_pressure;Samples;Min_cycle;Max_cycle;Signal;HPM_P1;HPM_P2
2022/07/06 00:01:16;;;;;;;;;4.00;4.00;;;;;19.58;50.62;102137.75;5060332;28;45444;-77
2022/07/06 00:03:41;;;;;;;;;5.33;4.00;;;;;19.60;50.37;102149.19;5060186;28;45332;-77
2022/07/06 00:06:06;;;;;;;;;4.00;4.00;;;;;19.57;50.55;102149.59;5060636;28;45347;-77
2022/07/06 00:08:32;;;;;;;;;4.67;4.67;;;;;19.53;51.31;102147.28;5060031;28;45424;-77
2022/07/06 00:10:57;;;;;;;;;3.33;3.33;;;;;19.46;50.99;102137.50;5060067;28;46488;-77
2022/07/06 00:13:22;;;;;;;;;4.00;4.00;;;;;19.42;51.04;102145.13;5060256;28;45371;-78
2022/07/06 00:15:48;;;;;;;;;3.67;3.33;;;;;19.40;51.59;102147.22;5061908;28;45478;-77
2022/07/06 00:18:13;;;;;;;;;5.00;5.00;;;;;19.37;51.76;102151.16;5052577;28;46802;-77
2022/07/06 00:20:38;;;;;;;;;5.00;5.00;;;;;19.32;51.99;102145.50;5041815;28;47256;-77
2022/07/06 00:23:04;;;;;;;;;3.33;3.33;;;;;19.27;51.63;102146.09;5060074;28;45318;-77
2022/07/06 00:25:29;;;;;;;;;4.00;4.00;;;;;19.26;52.36;102154.38;5041903;28;45372;-77
2022/07/06 00:27:54;;;;;;;;;4.00;2.00;;;;;19.18;52.46;102152.69;5059749;28;45579;-78
2022/07/06 00:30:20;;;;;;;;;3.67;3.67;;;;;19.10;51.91;102142.91;5059953;28;45283;-77
2022/07/06 00:32:45;;;;;;;;;3.00;3.00;;;;;19.09;51.96;102148.50;5041614;28;45441;-77
2022/07/06 00:35:10;;;;;;;;;4.33;3.33;;;;;19.04;52.11;102136.41;5043486;28;45459;-77
2022/07/06 00:37:35;;;;;;;;;4.00;4.00;;;;;18.99;52.76;102149.63;5059798;28;45632;-77
2022/07/06 00:40:01;;;;;;;;;3.67;3.67;;;;;18.95;53.18;102134.91;5059401;28;46479;-77
2022/07/06 00:42:26;;;;;;;;;3.67;3.67;;;;;18.88;52.67;102142.94;5041646;28;45343;-77
2022/07/06 00:44:51;;;;;;;;;4.00;4.00;;;;;18.84;53.68;102138.97;5059672;28;45319;-77
2022/07/06 00:47:17;;;;;;;;;4.00;4.00;;;;;18.83;53.47;102142.69;5025084;28;46539;-77
2022/07/06 00:52:26;;;;;;;;;4.00;4.00;;;;;18.63;53.98;102145.22;5059418;28;45355;-77
2022/07/06 00:54:51;;;;;;;;;6.33;5.00;;;;;18.56;54.18;102134.41;5059458;28;45367;-78
2022/07/06 00:57:18;;;;;;;;;4.00;3.00;;;;;18.50;54.66;102143.25;5059342;28;45404;-77
2022/07/06 00:59:43;;;;;;;;;4.33;4.33;;;;;18.48;54.32;102148.81;5049031;28;47222;-77
2022/07/06 01:02:08;;;;;;;;;4.00;4.00;;;;;18.37;55.02;102139.41;5059283;28;45348;-77
2022/07/06 01:04:34;;;;;;;;;3.00;3.00;;;;;18.35;55.34;102154.09;5058849;28;45883;-77
2022/07/06 01:07:01;;;;;;;;;5.33;5.33;;;;;18.31;55.13;102150.13;5059210;28;45440;-78
2022/07/06 01:09:26;;;;;;;;;4.00;4.00;;;;;18.28;55.01;102151.31;5058868;28;45332;-78
2022/07/06 01:11:53;;;;;;;;;7.67;5.00;;;;;18.17;55.38;102152.66;5037760;28;45302;-77
2022/07/06 01:14:19;;;;;;;;;3.00;3.00;;;;;18.07;55.92;102138.66;5040397;28;45301;-77
2022/07/06 01:16:45;;;;;;;;;4.00;4.00;;;;;18.10;56.06;102157.09;5068837;28;45510;-77
2022/07/06 01:19:10;;;;;;;;;5.00;5.00;;;;;18.01;56.46;102149.16;5043716;28;48554;-77
2022/07/06 01:21:38;;;;;;;;;4.00;4.00;;;;;17.96;56.31;102153.44;5058880;28;45319;-77
2022/07/06 01:24:03;;;;;;;;;6.00;5.33;;;;;17.94;56.40;102150.09;5049195;28;45351;-77
2022/07/06 01:26:29;;;;;;;;;5.00;5.00;;;;;17.94;56.37;102156.31;5058635;28;45303;-77
2022/07/06 01:28:55;;;;;;;;;4.00;3.00;;;;;17.87;56.54;102155.41;5037634;28;46942;-77
2022/07/06 01:31:22;;;;;;;;;4.00;3.00;;;;;17.88;56.76;102165.97;5054318;28;45477;-77
2022/07/06 01:33:49;;;;;;;;;4.00;4.00;;;;;17.83;57.10;102162.16;5041192;28;45312;-77
2022/07/06 01:36:15;;;;;;;;;5.00;5.00;;;;;17.68;57.34;102144.19;5037484;28;45494;-77
2022/07/06 01:38:51;;;;;;;;;5.00;5.00;;;;;17.73;57.59;102159.78;5040294;28;46971;-77
2022/07/06 01:41:18;;;;;;;;;3.67;3.67;;;;;17.65;57.99;102158.03;5058758;28;45347;-77
2022/07/06 01:43:44;;;;;;;;;4.00;3.67;;;;;17.46;58.33;102127.19;5058965;28;45458;-77
2022/07/06 01:46:09;;;;;;;;;6.33;5.00;;;;;17.57;58.28;102148.19;5048857;28;46425;-77
2022/07/06 01:48:35;;;;;;;;;5.67;5.67;;;;;17.53;58.53;102147.75;5040434;28;48284;-78
2022/07/06 01:51:00;;;;;;;;;5.00;5.00;;;;;17.49;58.79;102153.69;5058992;28;45300;-77
2022/07/06 01:53:26;;;;;;;;;5.00;4.00;;;;;17.45;58.58;102144.34;5058508;28;45472;-77
2022/07/06 01:55:51;;;;;;;;;3.67;3.67;;;;;17.43;58.98;102152.56;5058808;28;45366;-77
2022/07/06 01:58:16;;;;;;;;;4.00;4.00;;;;;17.41;58.87;102152.75;5058623;28;45347;-77
2022/07/06 02:00:42;;;;;;;;;3.00;2.33;;;;;17.42;59.47;102158.97;5058385;28;45433;-77
2022/07/06 02:03:07;;;;;;;;;5.67;5.67;;;;;17.35;59.13;102149.97;5048534;28;45445;-77
2022/07/06 02:05:33;;;;;;;;;6.00;4.67;;;;;17.27;59.70;102148.22;5040422;28;47423;-77
2022/07/06 02:07:58;;;;;;;;;6.00;5.00;;;;;17.28;59.66;102153.41;5058143;28;46662;-77
2022/07/06 02:10:24;;;;;;;;;3.00;3.00;;;;;17.25;59.43;102150.25;5058245;28;45371;-77
2022/07/06 02:12:49;;;;;;;;;5.00;5.00;;;;;17.21;59.62;102152.47;5044104;28;45355;-77
2022/07/06 02:15:14;;;;;;;;;3.00;3.00;;;;;17.21;60.24;102154.34;5059260;28;45257;-77
2022/07/06 02:17:40;;;;;;;;;5.00;5.00;;;;;17.18;60.21;102152.00;5074359;28;45351;-77
2022/07/06 02:20:06;;;;;;;;;4.00;4.00;;;;;17.21;60.17;102152.47;5062032;28;45303;-77
2022/07/06 02:22:31;;;;;;;;;7.33;5.67;;;;;17.15;60.40;102153.22;5043988;28;45372;-77
2022/07/06 02:24:57;;;;;;;;;5.00;5.00;;;;;17.15;60.51;102145.97;5061409;28;45484;-78
2022/07/06 02:27:22;;;;;;;;;6.00;6.00;;;;;17.13;60.30;102144.50;5061847;28;45610;-77
2022/07/06 02:29:47;;;;;;;;;4.33;4.33;;;;;17.06;60.44;102148.91;5057005;28;46040;-77
2022/07/06 02:32:13;;;;;;;;;5.33;5.33;;;;;17.04;61.22;102154.47;5062006;28;45471;-77
2022/07/06 02:34:38;;;;;;;;;5.00;5.00;;;;;17.01;61.32;102152.16;5061617;28;45448;-77
2022/07/06 02:37:03;;;;;;;;;5.00;5.00;;;;;17.01;61.65;102144.94;5061685;28;45375;-77
2022/07/06 02:39:29;;;;;;;;;3.33;3.33;;;;;17.01;61.41;102150.31;5051902;28;45319;-77
2022/07/06 02:41:54;;;;;;;;;5.00;5.00;;;;;17.00;61.75;102143.25;5061563;28;45455;-77
2022/07/06 02:44:19;;;;;;;;;5.00;5.00;;;;;16.94;61.99;102143.16;5061585;28;45388;-77
2022/07/06 02:46:45;;;;;;;;;4.00;4.00;;;;;16.86;61.91;102131.47;5041896;28;47173;-77
2022/07/06 02:49:10;;;;;;;;;6.00;6.00;;;;;16.86;62.11;102133.31;5061509;28;45334;-77
2022/07/06 02:51:35;;;;;;;;;7.33;7.33;;;;;16.86;62.05;102138.69;5061618;28;45539;-77
2022/07/06 02:54:01;;;;;;;;;5.67;5.67;;;;;16.90;62.18;102148.03;5061647;28;45556;-77
2022/07/06 02:56:27;;;;;;;;;5.33;5.00;;;;;16.90;61.31;102159.63;5061040;28;45601;-77
2022/07/06 02:58:53;;;;;;;;;7.00;7.00;;;;;16.91;61.47;102149.72;5061119;28;45145;-77
2022/07/06 03:01:18;;;;;;;;;6.00;6.00;;;;;16.87;61.40;102149.25;5043239;28;45740;-77
2022/07/06 03:03:43;;;;;;;;;6.67;6.67;;;;;16.97;61.37;102154.34;5061053;28;45240;-77
2022/07/06 03:06:09;;;;;;;;;5.00;5.00;;;;;17.00;61.64;102148.63;5061278;28;46439;-77
2022/07/06 03:08:34;;;;;;;;;4.67;4.67;;;;;17.04;61.71;102157.97;5053350;28;45284;-77
2022/07/06 03:11:00;;;;;;;;;4.00;4.00;;;;;17.01;62.06;102155.69;5060994;28;45244;-77
2022/07/06 03:13:26;;;;;;;;;7.00;7.00;;;;;17.08;62.00;102166.53;5061086;28;45314;-77
2022/07/06 03:15:51;;;;;;;;;5.00;5.00;;;;;17.13;61.89;102171.38;5062985;28;45663;-77
2022/07/06 03:18:16;;;;;;;;;6.00;5.67;;;;;17.02;62.33;102168.09;5057048;28;45420;-77
2022/07/06 03:20:42;;;;;;;;;4.33;4.33;;;;;17.08;62.21;102173.75;5043086;28;45395;-77
2022/07/06 03:23:07;;;;;;;;;4.00;4.00;;;;;17.01;62.56;102176.31;5060703;28;45518;-77
2022/07/06 03:25:32;;;;;;;;;4.00;3.67;;;;;16.96;62.59;102165.28;5060639;28;45351;-77
2022/07/06 03:27:58;;;;;;;;;6.00;5.67;;;;;16.90;62.55;102156.09;5042041;28;45665;-77
2022/07/06 03:30:23;;;;;;;;;6.00;5.67;;;;;16.91;62.77;102174.72;5043049;28;45365;-77
2022/07/06 03:32:48;;;;;;;;;5.00;5.00;;;;;16.86;62.41;102160.16;5052807;28;45940;-77
2022/07/06 03:35:14;;;;;;;;;4.33;4.33;;;;;16.78;62.62;102164.59;5060826;28;45358;-77
2022/07/06 03:37:39;;;;;;;;;6.00;6.00;;;;;16.78;63.05;102178.03;5060587;28;45299;-77
2022/07/06 03:40:05;;;;;;;;;7.67;5.67;;;;;16.70;63.22;102167.34;5060554;28;45462;-77
2022/07/06 03:42:30;;;;;;;;;4.67;4.67;;;;;16.71;63.63;102176.25;5060749;28;45448;-77
2022/07/06 03:44:56;;;;;;;;;6.00;6.00;;;;;16.68;63.50;102166.72;5060325;28;48211;-77
2022/07/06 03:47:21;;;;;;;;;5.67;5.67;;;;;16.72;63.05;102176.06;5060596;28;45343;-77
2022/07/06 03:49:46;;;;;;;;;7.00;7.00;;;;;16.69;63.41;102172.88;5042642;28;45446;-77
2022/07/06 03:52:11;;;;;;;;;7.00;6.33;;;;;16.65;62.97;102172.44;5042451;28;47441;-77
2022/07/06 03:54:37;;;;;;;;;5.00;4.00;;;;;16.64;63.44;102171.59;5060228;28;45599;-77
2022/07/06 03:57:02;;;;;;;;;5.00;5.00;;;;;16.62;63.41;102164.72;5060397;28;45249;-78
2022/07/06 03:59:28;;;;;;;;;6.33;5.33;;;;;16.60;63.69;102178.34;5042405;28;45320;-77
2022/07/06 04:01:53;;;;;;;;;6.00;6.00;;;;;16.61;63.83;102182.69;5060462;28;45452;-77
2022/07/06 04:04:18;;;;;;;;;8.00;7.67;;;;;16.63;63.81;102185.19;5060250;28;45517;-77
2022/07/06 04:06:44;;;;;;;;;13.00;12.33;;;;;16.59;63.80;102182.03;5042227;28;45261;-78
2022/07/06 04:09:09;;;;;;;;;12.00;12.00;;;;;16.59;63.63;102178.50;5041718;28;45273;-77
2022/07/06 04:11:34;;;;;;;;;21.67;19.33;;;;;16.67;63.97;102189.16;5042093;28;46160;-77
2022/07/06 04:14:00;;;;;;;;;12.00;10.00;;;;;16.65;64.33;102192.03;5060078;28;45240;-77
2022/07/06 04:16:25;;;;;;;;;9.00;9.00;;;;;16.57;63.98;102175.16;5067141;28;45600;-77
2022/07/06 04:18:51;;;;;;;;;10.33;8.33;;;;;16.62;64.21;102191.56;5047606;28;45391;-77
2022/07/06 04:21:16;;;;;;;;;8.33;7.00;;;;;16.55;64.09;102180.72;5059810;28;45551;-77
2022/07/06 04:23:41;;;;;;;;;17.67;17.67;;;;;16.61;64.11;102196.09;5059993;28;46541;-78
2022/07/06 04:26:07;;;;;;;;;14.00;11.67;;;;;16.58;64.55;102193.78;5059682;28;45291;-77
2022/07/06 04:28:32;;;;;;;;;9.00;9.00;;;;;16.54;64.21;102197.84;5060143;28;45432;-77
2022/07/06 04:30:58;;;;;;;;;8.00;8.00;;;;;16.54;64.53;102197.84;5059869;28;45570;-77
2022/07/06 04:33:23;;;;;;;;;8.00;7.67;;;;;16.50;64.53;102186.63;5041624;28;47835;-77
2022/07/06 04:35:48;;;;;;;;;6.67;6.67;;;;;16.49;64.55;102195.69;5059935;28;45603;-77
2022/07/06 04:38:14;;;;;;;;;8.00;8.00;;;;;16.51;64.59;102190.97;5059380;28;45518;-77
2022/07/06 04:40:40;;;;;;;;;7.67;7.67;;;;;16.50;64.74;102201.91;5044864;28;46167;-77
2022/07/06 04:43:05;;;;;;;;;5.67;5.67;;;;;16.50;65.15;102199.22;5041420;28;48491;-77
2022/07/06 04:45:30;;;;;;;;;6.00;5.33;;;;;16.44;65.16;102190.03;5059808;28;45388;-77
2022/07/06 04:47:55;;;;;;;;;6.00;5.00;;;;;16.48;65.19;102196.69;5059678;28;45366;-77
2022/07/06 04:50:21;;;;;;;;;5.00;5.00;;;;;16.46;65.51;102190.66;5059484;28;45259;-77
2022/07/06 04:52:46;;;;;;;;;8.33;8.00;;;;;16.47;65.67;102197.72;5059450;28;45434;-77
2022/07/06 04:55:14;;;;;;;;;10.00;6.00;;;;;16.45;65.66;102185.47;5059376;28;45258;-77
2022/07/06 04:57:39;;;;;;;;;7.00;7.00;;;;;16.48;65.63;102190.50;5059673;28;45438;-77
2022/07/06 05:00:05;;;;;;;;;8.00;7.33;;;;;16.50;65.98;102197.38;5035842;28;46080;-77
2022/07/06 05:02:31;;;;;;;;;5.33;4.67;;;;;16.46;65.68;102196.03;5032076;28;48684;-76
2022/07/06 05:04:56;;;;;;;;;7.00;7.00;;;;;16.53;65.78;102197.00;5059175;28;45347;-76
2022/07/06 05:07:22;;;;;;;;;4.67;4.67;;;;;16.60;65.88;102193.59;5059451;28;45262;-75
2022/07/06 05:09:47;;;;;;;;;6.00;6.00;;;;;16.59;65.55;102195.47;5058830;28;45328;-75
2022/07/06 05:12:12;;;;;;;;;9.00;7.33;;;;;16.64;65.66;102205.66;5059236;28;46258;-75
2022/07/06 05:14:37;;;;;;;;;9.00;7.33;;;;;16.69;65.80;102192.53;5059032;28;45299;-76
2022/07/06 05:17:03;;;;;;;;;9.00;7.00;;;;;16.70;65.38;102185.31;5064138;28;45344;-75
2022/07/06 05:19:28;;;;;;;;;9.00;8.00;;;;;16.78;65.14;102199.50;5041048;28;46410;-75
2022/07/06 05:21:54;;;;;;;;;10.00;10.00;;;;;16.83;65.17;102200.81;5058990;28;46203;-75
2022/07/06 05:24:19;;;;;;;;;9.00;8.00;;;;;16.85;64.97;102191.53;5058937;28;45378;-75
2022/07/06 05:26:44;;;;;;;;;14.00;13.00;;;;;16.92;64.91;102191.66;5059059;28;45574;-76
2022/07/06 05:29:10;;;;;;;;;13.00;13.00;;;;;16.94;65.11;102188.81;5049235;28;46213;-76
2022/07/06 05:31:35;;;;;;;;;12.00;12.00;;;;;17.00;65.02;102191.59;5050183;28;46747;-75
2022/07/06 05:34:00;;;;;;;;;12.67;12.00;;;;;17.03;64.54;102183.16;5053266;28;45319;-76
2022/07/06 05:36:26;;;;;;;;;12.00;12.00;;;;;17.11;64.38;102193.03;5059541;28;45291;-75
2022/07/06 05:38:51;;;;;;;;;10.00;9.00;;;;;17.14;64.36;102191.81;5058682;28;46732;-75
2022/07/06 05:41:17;;;;;;;;;9.00;7.67;;;;;17.16;64.19;102195.19;5040372;28;47235;-75
2022/07/06 05:43:42;;;;;;;;;8.67;8.00;;;;;17.23;63.95;102197.94;5047429;28;45403;-75
2022/07/06 05:46:07;;;;;;;;;7.00;7.00;;;;;17.24;63.85;102197.78;5058892;28;45481;-75
2022/07/06 05:51:17;;;;;;;;;5.00;5.00;;;;;17.36;63.62;102200.84;5060835;28;45694;-75
2022/07/06 05:53:42;;;;;;;;;7.00;7.00;;;;;17.38;63.61;102204.19;5062301;28;45310;-75
2022/07/06 05:56:07;;;;;;;;;8.00;6.00;;;;;17.39;63.20;102207.72;5062154;28;46011;-75
2022/07/06 05:58:33;;;;;;;;;7.00;7.00;;;;;17.48;62.81;102219.22;5062317;28;45473;-75
2022/07/06 06:00:58;;;;;;;;;8.00;8.00;;;;;17.52;63.00;102217.81;5062145;28;45400;-75
2022/07/06 06:03:23;;;;;;;;;8.00;8.00;;;;;17.58;63.07;102224.31;5061879;28;45347;-76
2022/07/06 06:05:49;;;;;;;;;7.00;5.33;;;;;17.62;63.03;102217.53;5062481;28;45319;-77
2022/07/06 06:08:14;;;;;;;;;6.00;6.00;;;;;17.66;63.21;102216.97;5062089;28;45381;-76
2022/07/06 06:10:40;;;;;;;;;6.00;6.00;;;;;17.70;62.55;102220.13;5043709;28;46077;-76
2022/07/06 06:13:05;;;;;;;;;6.33;6.33;;;;;17.81;62.61;102223.38;5044147;28;45266;-77
2022/07/06 06:15:31;;;;;;;;;8.67;7.00;;;;;17.84;62.88;102228.38;5062207;28;45293;-76
2022/07/06 06:17:56;;;;;;;;;10.67;10.67;;;;;17.88;62.70;102216.22;5051336;28;46838;-77
2022/07/06 06:20:21;;;;;;;;;13.00;10.00;;;;;17.96;62.68;102226.88;5057095;28;47119;-77
2022/07/06 06:22:55;;;;;;;;;6.67;6.67;;;;;17.99;62.83;102221.13;5056604;28;45555;-77
2022/07/06 06:25:27;;;;;;;;;9.00;7.33;;;;;18.02;61.92;102220.75;5062125;28;45323;-76
2022/07/06 06:27:53;;;;;;;;;6.33;6.33;;;;;18.02;61.93;102219.94;5043512;28;47473;-77
2022/07/06 06:30:18;;;;;;;;;9.00;7.67;;;;;18.10;61.54;102227.91;5047251;28;47364;-76
2022/07/06 06:32:44;;;;;;;;;6.67;6.67;;;;;18.17;61.55;102225.31;5043792;28;45257;-75
2022/07/06 06:35:09;;;;;;;;;10.33;7.33;;;;;18.31;61.52;102233.53;5061830;28;45389;-75
2022/07/06 06:37:35;;;;;;;;;6.67;6.67;;;;;18.34;61.45;102216.97;5061941;28;45326;-75
2022/07/06 06:40:01;;;;;;;;;9.00;9.00;;;;;18.42;60.95;102220.41;5061313;28;46516;-75
2022/07/06 06:42:26;;;;;;;;;7.00;7.00;;;;;18.46;61.04;102218.16;5061950;28;45595;-75
2022/07/06 06:44:51;;;;;;;;;7.67;7.67;;;;;18.54;60.69;102220.75;5061549;28;45400;-75
2022/07/06 06:47:19;;;;;;;;;5.00;5.00;;;;;18.58;60.57;102221.16;5061580;28;45275;-75
2022/07/06 06:49:44;;;;;;;;;8.00;8.00;;;;;18.67;60.08;102229.94;5061455;28;47238;-75
2022/07/06 06:52:09;;;;;;;;;8.00;6.33;;;;;18.71;59.77;102230.41;5061225;28;45451;-75
2022/07/06 06:54:34;;;;;;;;;9.33;8.33;;;;;18.73;59.33;102218.41;5061358;28;45433;-75
2022/07/06 06:57:00;;;;;;;;;5.33;5.33;;;;;18.84;59.41;102232.38;5056734;28;45893;-75
2022/07/06 06:59:25;;;;;;;;;6.67;6.00;;;;;18.86;59.32;102231.16;5061311;28;46262;-75
2022/07/06 07:01:50;;;;;;;;;5.67;5.67;;;;;18.99;58.05;102237.69;5060254;28;45363;-75
2022/07/06 07:04:16;;;;;;;;;5.67;5.67;;;;;19.02;57.63;102222.00;5046401;28;45317;-75
2022/07/06 07:06:41;;;;;;;;;12.33;11.00;;;;;19.10;57.10;102226.44;5061373;28;45202;-75
2022/07/06 07:09:06;;;;;;;;;13.67;12.00;;;;;19.12;57.52;102218.13;5057691;28;47610;-75
2022/07/06 07:11:32;;;;;;;;;6.00;6.00;;;;;19.23;57.12;102232.94;5061379;28;45259;-75
2022/07/06 07:13:57;;;;;;;;;6.00;6.00;;;;;19.35;56.99;102227.84;5061307;28;45278;-75
2022/07/06 07:16:25;;;;;;;;;7.00;5.00;;;;;19.42;56.34;102223.31;5049781;28;45875;-75
2022/07/06 07:18:51;;;;;;;;;6.00;6.00;;;;;19.46;55.98;102218.38;5066612;28;45495;-76
2022/07/06 07:21:16;;;;;;;;;6.00;6.00;;;;;19.58;56.09;102230.28;5061026;28;45312;-76
2022/07/06 07:23:42;;;;;;;;;6.67;6.33;;;;;19.65;56.18;102233.84;5048068;28;45422;-75
2022/07/06 07:26:07;;;;;;;;;6.00;6.00;;;;;19.72;55.86;102227.66;5060768;28;45541;-75
2022/07/06 07:28:33;;;;;;;;;5.00;4.33;;;;;19.79;54.85;102232.03;5060963;28;45415;-75
2022/07/06 07:30:58;;;;;;;;;5.33;5.33;;;;;19.89;54.64;102244.31;5051621;28;45373;-75
2022/07/06 07:33:23;;;;;;;;;5.67;4.33;;;;;19.86;54.47;102234.78;5060872;28;45374;-75
2022/07/06 07:35:49;;;;;;;;;5.00;5.00;;;;;19.94;54.68;102239.97;5060707;28;45353;-75
2022/07/06 07:38:14;;;;;;;;;7.00;7.00;;;;;19.99;54.29;102242.09;5042511;28;47470;-75
2022/07/06 07:40:39;;;;;;;;;8.67;8.00;;;;;20.03;54.05;102239.84;5060475;28;45306;-75
2022/07/06 07:43:04;;;;;;;;;6.67;6.67;;;;;20.09;53.89;102228.25;5053500;28;45300;-74
2022/07/06 07:45:30;;;;;;;;;6.33;5.33;;;;;20.16;53.10;102225.56;5060701;28;45300;-75
2022/07/06 07:47:55;;;;;;;;;1.67;1.67;;;;;20.22;53.51;102224.75;5060594;28;45387;-75
2022/07/06 07:50:21;;;;;;;;;17.67;16.00;;;;;20.26;53.57;102222.50;5060423;28;45339;-75
2022/07/06 07:52:46;;;;;;;;;6.67;6.67;;;;;20.40;52.90;102226.88;5060714;28;45705;-75
2022/07/06 07:55:12;;;;;;;;;2.00;2.00;;;;;20.52;52.26;102224.41;5060111;28;45296;-75
2022/07/06 07:57:38;;;;;;;;;5.00;5.00;;;;;20.60;51.65;102228.81;5042399;28;47470;-75
2022/07/06 08:00:04;;;;;;;;;7.00;6.00;;;;;20.61;51.73;102224.22;5060433;28;45286;-75
2022/07/06 08:02:30;;;;;;;;;5.33;4.67;;;;;20.67;50.82;102223.38;5060259;28;45331;-75
2022/07/06 08:04:55;;;;;;;;;7.00;7.00;;;;;20.68;50.85;102220.47;5060162;28;45410;-75
2022/07/06 08:07:20;;;;;;;;;4.67;4.67;;;;;20.72;50.30;102225.47;5056584;28;47736;-75
2022/07/06 08:09:46;;;;;;;;;7.33;7.33;;;;;20.71;50.11;102213.81;5059908;28;45453;-75
2022/07/06 08:12:11;;;;;;;;;4.67;4.67;;;;;20.75;49.80;102214.25;5060225;28;45500;-75
2022/07/06 08:14:37;;;;;;;;;5.00;5.00;;;;;20.82;49.74;102223.19;5041892;28;45818;-75
2022/07/06 08:17:04;;;;;;;;;4.00;4.00;;;;;20.85;49.89;102217.38;5072421;28;46328;-75
2022/07/06 08:19:30;;;;;;;;;5.67;5.33;;;;;20.92;49.72;102220.13;5059949;28;45466;-75
2022/07/06 08:21:56;;;;;;;;;4.00;4.00;;;;;21.03;49.35;102216.78;5060390;28;45284;-74
2022/07/06 08:24:21;;;;;;;;;5.00;5.00;;;;;21.03;49.28;102207.84;5038266;28;46202;-74
2022/07/06 08:26:47;;;;;;;;;8.33;7.00;;;;;21.17;49.83;102211.38;5059730;28;45326;-75
2022/07/06 08:29:12;;;;;;;;;6.67;4.33;;;;;21.27;49.30;102216.34;5060247;28;45229;-75
2022/07/06 08:31:37;;;;;;;;;3.00;3.00;;;;;21.33;48.88;102211.97;5056231;28;45277;-75
2022/07/06 08:34:03;;;;;;;;;4.00;4.00;;;;;21.38;48.90;102217.56;5041914;28;47272;-75
2022/07/06 08:36:29;;;;;;;;;4.00;4.00;;;;;21.47;48.39;102221.72;5059609;28;45333;-75
2022/07/06 08:38:54;;;;;;;;;5.00;5.00;;;;;21.49;48.28;102214.19;5059676;28;45254;-76
2022/07/06 08:41:23;;;;;;;;;6.00;4.00;;;;;21.56;48.67;102217.75;5052296;28;45462;-75
2022/07/06 08:43:50;;;;;;;;;6.00;4.00;;;;;21.62;47.60;102220.63;5041762;28;46224;-75
2022/07/06 08:46:16;;;;;;;;;4.00;4.00;;;;;21.64;47.44;102215.84;5059676;28;47613;-75
2022/07/06 08:48:41;;;;;;;;;5.00;5.00;;;;;21.74;47.75;102218.09;5059424;28;45383;-74
2022/07/06 08:51:07;;;;;;;;;6.67;6.00;;;;;21.82;47.68;102216.00;5059930;28;45347;-75
2022/07/06 08:53:33;;;;;;;;;4.00;4.00;;;;;21.91;48.36;102216.59;5041296;28;46418;-75
2022/07/06 08:56:01;;;;;;;;;7.00;6.00;;;;;22.02;47.98;102217.78;5059339;28;46148;-75
2022/07/06 08:58:27;;;;;;;;;6.33;4.67;;;;;22.07;47.58;102211.72;5052699;28;45292;-74
2022/07/06 09:00:54;;;;;;;;;6.33;6.33;;;;;22.17;47.13;102219.38;5059756;28;45683;-75
2022/07/06 09:03:20;;;;;;;;;3.33;3.33;;;;;22.20;47.28;102213.53;5050868;28;47661;-75
2022/07/06 09:05:46;;;;;;;;;6.67;6.67;;;;;22.28;47.18;102224.13;5059277;28;45997;-75
2022/07/06 09:08:12;;;;;;;;;5.33;5.33;;;;;22.33;46.74;102218.06;5059376;28;45319;-75
2022/07/06 09:10:38;;;;;;;;;7.33;5.33;;;;;22.42;46.38;102208.59;5054283;28;45327;-75
2022/07/06 09:13:05;;;;;;;;;6.00;4.67;;;;;22.51;46.20;102203.75;5046785;28;45457;-75
2022/07/06 09:15:32;;;;;;;;;4.00;4.00;;;;;22.53;46.46;102198.09;5059138;28;46761;-74
2022/07/06 09:17:57;;;;;;;;;5.67;4.67;;;;;22.60;44.62;102204.34;5071868;28;45450;-75
2022/07/06 09:20:23;;;;;;;;;7.33;7.33;;;;;22.65;45.81;102200.97;5054582;28;45526;-75
2022/07/06 09:22:49;;;;;;;;;4.67;4.67;;;;;22.72;46.05;102204.47;5054025;28;45474;-75
2022/07/06 09:25:16;;;;;;;;;5.00;5.00;;;;;22.70;45.08;102191.16;5058358;28;45576;-75
2022/07/06 09:27:45;;;;;;;;;4.67;4.67;;;;;22.80;45.76;102200.63;5059305;28;45273;-75
2022/07/06 09:30:13;;;;;;;;;6.00;6.00;;;;;22.79;44.72;102183.56;5059408;28;45158;-75
2022/07/06 09:32:46;;;;;;;;;7.33;6.00;;;;;22.90;45.00;102186.59;5040953;28;47648;-74
2022/07/06 09:35:35;;;;;;;;;8.00;8.00;;;;;22.99;45.25;102190.69;5058664;28;46310;-75
2022/07/06 09:38:05;;;;;;;;;4.00;4.00;;;;;23.05;44.83;102189.78;5051760;28;45347;-75
2022/07/06 09:40:33;;;;;;;;;14.00;14.00;;;;;23.13;45.36;102177.00;5058811;28;45375;-76
2022/07/06 09:43:18;;;;;;;;;6.00;4.33;;;;;23.20;44.71;102178.56;5040799;28;46207;-75
2022/07/06 09:45:46;;;;;;;;;6.33;5.00;;;;;23.36;44.87;102186.34;5046592;28;46182;-75
2022/07/06 09:48:22;;;;;;;;;5.00;5.00;;;;;23.45;44.41;102182.31;5058871;28;45529;-74
2022/07/06 09:50:59;;;;;;;;;5.33;5.33;;;;;23.51;44.41;102167.00;5025077;28;45356;-75
2022/07/06 09:53:26;;;;;;;;;4.33;4.33;;;;;23.57;43.22;102172.34;5053524;28;45365;-74
2022/07/06 09:55:54;;;;;;;;;5.33;5.33;;;;;23.70;44.17;102175.94;5058417;28;46615;-74
2022/07/06 09:58:21;;;;;;;;;5.33;5.33;;;;;23.85;42.96;102191.81;5040408;28;45286;-75
2022/07/06 10:00:47;;;;;;;;;7.67;5.67;;;;;23.88;43.44;102183.22;5035100;28;45396;-76
2022/07/06 10:03:15;;;;;;;;;2.00;2.00;;;;;23.96;43.20;102185.63;5050422;28;45530;-75
2022/07/06 10:05:43;;;;;;;;;5.00;5.00;;;;;24.08;43.31;102195.69;5058420;28;45344;-75
2022/07/06 10:08:09;;;;;;;;;5.00;5.00;;;;;24.20;42.82;102193.06;5040404;28;45446;-75
2022/07/06 10:10:37;;;;;;;;;7.00;6.00;;;;;24.41;42.03;102204.44;5058106;28;45491;-74
2022/07/06 10:13:05;;;;;;;;;6.00;6.00;;;;;24.50;42.13;102197.63;5058745;28;45303;-75
2022/07/06 10:15:33;;;;;;;;;5.00;4.00;;;;;24.62;41.71;102194.09;5058411;28;45512;-75
2022/07/06 10:18:01;;;;;;;;;4.00;4.00;;;;;24.77;41.45;102193.63;5056841;28;45996;-75
2022/07/06 10:20:31;;;;;;;;;6.00;6.00;;;;;24.85;40.85;102185.13;5058531;28;45343;-75
2022/07/06 10:22:59;;;;;;;;;5.33;4.33;;;;;24.98;40.90;102183.25;5052976;28;46145;-75
2022/07/06 10:25:25;;;;;;;;;5.00;5.00;;;;;25.11;40.53;102179.47;5058271;28;45438;-74
2022/07/06 10:27:51;;;;;;;;;6.67;6.67;;;;;25.22;40.45;102184.06;5058421;28;45384;-75
2022/07/06 10:30:17;;;;;;;;;6.00;6.00;;;;;25.24;39.75;102176.50;5040448;28;45423;-74
2022/07/06 10:32:45;;;;;;;;;7.67;6.00;;;;;25.26;39.01;102184.44;5058355;28;45464;-75
2022/07/06 10:35:12;;;;;;;;;5.00;5.00;;;;;25.27;39.84;102186.91;5058046;28;45384;-75
2022/07/06 10:37:38;;;;;;;;;5.00;5.00;;;;;25.30;39.53;102183.72;5050696;28;45403;-74
2022/07/06 10:42:55;;;;;;;;;4.00;4.00;;;;;25.65;38.29;102175.72;5061760;28;45339;-74
2022/07/06 10:45:46;;;;;;;;;5.00;4.67;;;;;25.84;38.42;102181.81;5061377;28;45368;-76
2022/07/06 10:48:11;;;;;;;;;4.67;4.00;;;;;25.92;38.70;102177.88;5054406;28;45471;-76
2022/07/06 10:50:53;;;;;;;;;5.00;5.00;;;;;25.86;38.23;102192.47;5061760;28;45315;-75
2022/07/06 10:53:27;;;;;;;;;5.00;5.00;;;;;25.95;37.79;102180.91;5043153;28;46338;-75
2022/07/06 10:55:55;;;;;;;;;5.00;5.00;;;;;26.09;38.01;102186.06;5047002;28;47263;-76
2022/07/06 10:58:45;;;;;;;;;4.00;4.00;;;;;26.29;38.47;102163.84;5061242;28;45336;-76
2022/07/06 11:01:11;;;;;;;;;3.33;3.33;;;;;26.63;38.06;102171.19;5050601;28;45284;-75
2022/07/06 11:03:46;;;;;;;;;3.33;3.33;;;;;27.02;37.81;102161.41;5061083;28;45640;-76
2022/07/06 11:06:21;;;;;;;;;4.00;4.00;;;;;27.36;37.25;102174.94;5061544;28;45366;-75
2022/07/06 11:08:53;;;;;;;;;3.00;3.00;;;;;27.35;36.17;102174.09;5060618;28;45402;-75
2022/07/06 11:11:20;;;;;;;;;3.00;3.00;;;;;27.33;37.05;102176.25;5061587;28;45291;-76
2022/07/06 11:13:54;;;;;;;;;3.00;3.00;;;;;27.12;35.08;102177.06;5054265;28;46420;-75
2022/07/06 11:16:23;;;;;;;;;6.00;6.00;;;;;26.96;35.98;102172.22;5067173;28;45335;-75
2022/07/06 11:19:01;;;;;;;;;5.00;5.00;;;;;26.80;36.65;102173.06;5067071;28;45394;-75
2022/07/06 11:21:40;;;;;;;;;3.67;3.67;;;;;26.69;37.26;102164.72;5061085;28;45340;-75
2022/07/06 11:24:08;;;;;;;;;6.00;6.00;;;;;26.76;36.64;102159.13;5050851;28;46310;-75
2022/07/06 11:26:36;;;;;;;;;3.00;3.00;;;;;26.98;35.78;102163.81;5042589;28;47467;-76
2022/07/06 11:29:04;;;;;;;;;3.67;3.67;;;;;27.08;35.84;102163.94;5061101;28;45446;-75